Time;durP1;ratioP1;P1;durP2;ratioP2;P2;SDS_P1;SDS_P2;PMS_P1;PMS_P2;Temp;Humidity;BMP_temperature;BMP_pressure;BME280_temperature;BME280_humidity;BME280_pressure;Samples;Min_cycle;Max_cycle;Signal;HPM_P1;HPM_P2
2021/05/21 00:01:20;;;;;;;14.80;8.23;;;;;;;7.60;71.14;100182.72;2039094;85;20276;-75
2021/05/21 00:04:21;;;;;;;10.05;6.67;;;;;;;7.57;71.44;100179.05;2038357;85;21127;-75
2021/05/21 00:07:22;;;;;;;11.05;6.30;;;;;;;7.53;71.57;100179.48;2039510;85;21111;-75
2021/05/21 00:10:25;;;;;;;;;;;;;;;7.52;71.60;100176.50;2040587;85;21153;-76
2021/05/21 00:13:26;;;;;;;9.85;5.30;;;;;;;7.46;71.57;100171.32;2037953;85;20204;-76
2021/05/21 00:16:27;;;;;;;10.63;5.78;;;;;;;7.36;71.40;100169.19;2037956;85;21141;-76
2021/05/21 00:19:28;;;;;;;15.60;7.85;;;;;;;7.30;71.55;100167.96;2037473;85;21416;-76
2021/05/21 00:22:30;;;;;;;7.85;6.50;;;;;;;7.23;71.63;100168.18;2036743;85;21129;-75
2021/05/21 00:25:31;;;;;;;10.05;6.42;;;;;;;7.20;71.81;100169.79;2039042;85;21070;-76
2021/05/21 00:28:34;;;;;;;13.40;8.28;;;;;;;7.19;71.70;100170.78;2039156;85;21077;-75
2021/05/21 00:31:37;;;;;;;10.63;8.23;;;;;;;7.19;71.78;100158.91;2037209;85;21687;-76
2021/05/21 00:34:38;;;;;;;9.25;6.55;;;;;;;7.22;71.87;100155.14;2038080;85;21118;-75
2021/05/21 00:37:39;;;;;;;9.00;6.90;;;;;;;7.19;72.01;100157.58;2039120;85;21092;-76
2021/05/21 00:40:44;;;;;;;;;;;;;;;7.19;71.91;100152.30;2040308;85;21132;-76
2021/05/21 00:43:45;;;;;;;12.88;7.97;;;;;;;7.20;72.35;100151.31;2038351;85;20382;-76
2021/05/21 00:46:46;;;;;;;12.60;7.97;;;;;;;7.24;72.52;100154.52;2039977;85;21097;-76
2021/05/21 00:49:48;;;;;;;10.58;6.97;;;;;;;7.18;72.58;100148.02;2038839;85;21132;-76
2021/05/21 00:52:49;;;;;;;19.55;9.00;;;;;;;7.16;72.48;100151.27;2037102;85;21148;-75
2021/05/21 00:55:50;;;;;;;9.43;6.72;;;;;;;7.08;72.66;100153.30;2039725;85;21116;-76
2021/05/21 00:58:54;;;;;;;8.75;6.65;;;;;;;7.09;72.50;100151.00;2036996;85;21168;-75
2021/05/21 01:01:56;;;;;;;8.65;6.65;;;;;;;7.07;72.55;100153.47;2037994;85;21128;-76
2021/05/21 01:05:01;;;;;;;8.75;7.05;;;;;;;6.99;72.41;100146.25;2037570;85;21110;-76
2021/05/21 01:08:00;;;;;;;7.15;5.95;;;;;;;6.93;72.62;100147.66;2038558;85;21123;-76
2021/05/21 01:11:05;;;;;;;9.00;6.62;;;;;;;6.88;72.59;100143.78;2037060;85;21116;-76
2021/05/21 01:14:06;;;;;;;6.87;5.25;;;;;;;6.82;72.96;100141.72;2038856;85;21108;-76
2021/05/21 01:17:07;;;;;;;10.23;6.22;;;;;;;6.79;72.79;100137.55;2039674;85;21162;-77
2021/05/21 01:20:10;;;;;;;;;;;;;;;6.75;73.15;100136.16;2039895;85;21076;-76
2021/05/21 01:23:11;;;;;;;8.83;5.20;;;;;;;6.77;73.30;100131.58;2074141;84;20236;-76
2021/05/21 01:26:14;;;;;;;7.05;5.75;;;;;;;6.73;73.19;100133.68;2074230;84;21074;-76
2021/05/21 01:29:15;;;;;;;6.12;5.50;;;;;;;6.73;73.33;100131.05;2074748;84;21178;-75
2021/05/21 01:32:16;;;;;;;8.78;7.08;;;;;;;6.76;73.56;100131.71;2076645;84;21098;-75
2021/05/21 01:35:19;;;;;;;8.98;7.00;;;;;;;6.72;73.63;100125.89;2073687;84;21080;-75
2021/05/21 01:38:21;;;;;;;8.25;6.45;;;;;;;6.67;73.57;100125.02;2074079;84;21122;-76
2021/05/21 01:41:23;;;;;;;9.70;6.92;;;;;;;6.62;73.57;100121.97;2072206;84;21676;-76
2021/05/21 01:44:25;;;;;;;10.95;7.03;;;;;;;6.60;73.56;100125.23;2073261;84;21070;-75
2021/05/21 01:47:26;;;;;;;12.30;7.12;;;;;;;6.55;73.47;100124.81;2074353;84;21380;-75
2021/05/21 01:50:27;;;;;;;;;;;;;;;6.51;73.69;100119.48;2076522;84;21425;-75
2021/05/21 01:53:28;;;;;;;10.48;7.20;;;;;;;6.48;73.68;100114.01;2072879;84;20225;-75
2021/05/21 01:56:29;;;;;;;10.78;6.87;;;;;;;6.38;73.70;100114.48;2075170;84;21118;-75
2021/05/21 01:59:31;;;;;;;9.58;6.75;;;;;;;6.33;73.93;100110.61;2074593;84;21070;-76
2021/05/21 02:02:33;;;;;;;11.73;7.28;;;;;;;6.27;73.91;100123.86;2075112;84;21094;-75
2021/05/21 02:05:34;;;;;;;9.03;6.97;;;;;;;6.22;74.11;100112.44;2074311;84;21574;-75
2021/05/21 02:08:35;;;;;;;10.93;7.05;;;;;;;6.29;74.11;100112.70;2074457;84;21050;-76
2021/05/21 02:11:37;;;;;;;;;;;;;;;6.32;74.07;100112.42;2079535;84;21031;-76
2021/05/21 02:14:39;;;;;;;10.13;8.05;;;;;;;6.32;73.92;100108.95;2076755;84;20205;-75
2021/05/21 02:17:41;;;;;;;8.08;6.67;;;;;;;6.25;74.16;100105.56;2073959;84;21074;-75
2021/05/21 02:20:43;;;;;;;14.85;7.08;;;;;;;6.21;74.00;100108.11;2071307;84;21082;-75
2021/05/21 02:23:45;;;;;;;8.75;5.95;;;;;;;6.18;73.84;100106.25;2078396;84;21664;-75
2021/05/21 02:26:46;;;;;;;6.90;5.97;;;;;;;6.18;73.90;100103.12;2075808;84;21082;-75
2021/05/21 02:29:50;;;;;;;8.33;6.62;;;;;;;6.19;73.83;100105.27;2074870;84;21085;-75
2021/05/21 02:32:52;;;;;;;9.25;7.17;;;;;;;6.19;74.02;100102.14;2074243;84;21105;-76
2021/05/21 02:35:53;;;;;;;10.40;7.37;;;;;;;6.09;73.97;100093.92;2071770;84;21098;-75
2021/05/21 02:38:55;;;;;;;6.62;5.83;;;;;;;6.12;74.00;100099.73;2075771;84;21095;-75
2021/05/21 02:41:56;;;;;;;9.95;6.83;;;;;;;6.14;73.84;100093.84;2073569;84;21597;-75
2021/05/21 02:44:57;;;;;;;12.35;7.50;;;;;;;6.09;73.73;100096.06;2075224;84;21140;-75
2021/05/21 02:47:58;;;;;;;;;;;;;;;6.02;73.88;100078.64;2077892;84;21047;-76
2021/05/21 02:50:59;;;;;;;9.73;7.12;;;;;;;5.85;74.14;100076.66;2073425;84;20284;-76
2021/05/21 02:54:00;;;;;;;10.45;7.08;;;;;;;5.73;74.42;100079.91;2074120;84;21078;-75
2021/05/21 02:57:02;;;;;;;13.08;7.50;;;;;;;5.66;74.51;100072.23;2075074;84;21058;-75
2021/05/21 03:00:05;;;;;;;9.78;6.50;;;;;;;5.56;74.66;100071.37;2073265;84;21066;-76
2021/05/21 03:03:06;;;;;;;9.68;6.87;;;;;;;5.48;74.92;100065.45;2073798;84;21085;-75
2021/05/21 03:06:07;;;;;;;12.60;8.10;;;;;;;5.48;75.26;100064.63;2073800;84;21114;-76
2021/05/21 03:09:09;;;;;;;10.05;7.05;;;;;;;5.50;75.48;100062.21;2073724;84;21078;-76
2021/05/21 03:12:11;;;;;;;10.85;8.03;;;;;;;5.52;75.64;100060.28;2073662;84;21114;-76
2021/05/21 03:15:13;;;;;;;10.53;8.18;;;;;;;5.50;75.77;100056.12;2076376;84;21656;-75
2021/05/21 03:18:22;;;;;;;11.18;8.15;;;;;;;5.57;75.94;100053.28;2075117;84;21554;-75
2021/05/21 03:21:22;;;;;;;12.95;7.90;;;;;;;5.73;76.11;100058.84;2069115;84;21122;-76
2021/05/21 03:24:24;;;;;;;10.40;7.72;;;;;;;5.79;75.98;100056.16;2063692;84;21059;-75
2021/05/21 03:27:26;;;;;;;12.23;7.50;;;;;;;5.94;76.05;100053.97;2063636;84;21130;-75
2021/05/21 03:30:27;;;;;;;;;;;;;;;6.05;75.87;100054.69;2069827;84;21078;-75
2021/05/21 03:33:28;;;;;;;12.03;9.18;;;;;;;6.19;75.84;100062.62;2038479;84;20222;-76
2021/05/21 03:36:29;;;;;;;13.13;10.72;;;;;;;6.27;75.73;100053.53;2063521;84;21145;-76
2021/05/21 03:39:30;;;;;;;14.10;10.53;;;;;;;6.30;75.78;100049.79;2063480;84;21093;-76
2021/05/21 03:42:31;;;;;;;;;;;;;;;6.36;75.88;100044.44;2068581;84;21102;-75
2021/05/21 03:45:34;;;;;;;12.95;9.28;;;;;;;6.36;75.90;100040.00;2064183;84;20565;-75
2021/05/21 03:48:35;;;;;;;12.70;8.53;;;;;;;6.30;75.78;100044.52;2061374;84;21069;-77
2021/05/21 03:51:36;;;;;;;11.68;8.43;;;;;;;6.36;76.00;100043.13;2065115;84;21074;-75
2021/05/21 03:54:37;;;;;;;;;;;;;;;6.47;76.08;100046.92;2066525;84;22219;-75
2021/05/21 03:57:39;;;;;;;12.93;7.97;;;;;;;6.54;76.02;100036.16;2064628;84;20203;-75
2021/05/21 04:00:40;;;;;;;12.95;7.80;;;;;;;6.58;76.03;100038.84;2063646;84;21035;-75
2021/05/21 04:03:44;;;;;;;10.88;8.55;;;;;;;6.62;76.08;100034.97;2042124;84;21388;-76
2021/05/21 04:06:46;;;;;;;11.78;8.73;;;;;;;6.63;76.01;100035.30;2063473;84;21116;-75
2021/05/21 04:09:47;;;;;;;12.07;9.53;;;;;;;6.71;76.14;100035.41;2064404;84;21142;-76
2021/05/21 04:12:48;;;;;;;14.05;9.48;;;;;;;6.84;76.24;100040.84;2065176;84;21051;-75
2021/05/21 04:15:50;;;;;;;12.68;8.90;;;;;;;6.94;76.23;100037.69;2064913;84;21388;-75
2021/05/21 04:18:51;;;;;;;10.82;7.90;;;;;;;6.94;75.80;100033.73;2064211;84;21087;-76
2021/05/21 04:21:52;;;;;;;10.95;8.15;;;;;;;6.98;76.03;100034.27;2062004;84;21144;-75
2021/05/21 04:24:53;;;;;;;14.40;9.18;;;;;;;7.06;76.08;100033.87;2041006;85;21078;-76
2021/05/21 04:27:54;;;;;;;;;;;;;;;7.21;76.39;100030.75;2061228;85;21119;-75
2021/05/21 04:30:55;;;;;;;11.50;8.03;;;;;;;7.39;76.51;100029.81;2036146;85;20236;-75
2021/05/21 04:33:56;;;;;;;12.03;8.88;;;;;;;7.48;76.48;100006.15;2059691;85;21008;-75
2021/05/21 04:37:00;;;;;;;14.07;9.15;;;;;;;7.75;76.59;100022.44;2059529;85;21683;-75
2021/05/21 04:40:02;;;;;;;11.48;8.58;;;;;;;7.87;76.44;100011.97;2057417;85;21101;-75
2021/05/21 04:43:03;;;;;;;14.33;7.42;;;;;;;7.94;76.43;100007.75;2060492;85;21094;-75
2021/05/21 04:46:06;;;;;;;;;;;;;;;7.98;76.44;100009.09;2061711;85;21079;-75
2021/05/21 04:49:07;;;;;;;11.28;8.20;;;;;;;7.99;76.46;99998.02;2059491;85;20231;-76
2021/05/21 04:52:10;;;;;;;11.97;7.70;;;;;;;8.03;76.53;100005.50;2055287;85;21141;-74
2021/05/21 04:55:15;;;;;;;11.70;8.38;;;;;;;8.10;76.64;100008.35;2059543;85;21108;-74
2021/05/21 04:58:17;;;;;;;11.48;8.55;;;;;;;8.20;76.67;100006.45;2021978;86;21080;-78
2021/05/21 05:01:18;;;;;;;11.40;8.85;;;;;;;8.32;76.75;100000.42;2043066;85;21715;-75
2021/05/21 05:04:20;;;;;;;9.70;8.00;;;;;;;8.41;76.56;99999.52;2033664;85;21080;-74
2021/05/21 05:07:24;;;;;;;10.45;7.83;;;;;;;8.53;76.62;100001.40;2055449;85;21178;-75
2021/05/21 05:10:26;;;;;;;9.90;7.65;;;;;;;8.65;76.51;99998.02;2005555;86;22380;-74
2021/05/21 05:13:27;;;;;;;9.23;7.25;;;;;;;8.70;76.24;99997.89;2022531;86;21598;-73
2021/05/21 05:16:31;;;;;;;11.48;9.00;;;;;;;8.85;76.48;100003.91;2071177;84;22406;-75
2021/05/21 05:19:32;;;;;;;10.60;8.70;;;;;;;9.04;76.54;99993.55;2039671;85;21664;-76
2021/05/21 05:22:34;;;;;;;10.90;7.97;;;;;;;9.35;76.38;99999.13;2056303;85;21156;-77
2021/05/21 05:25:35;;;;;;;9.70;7.78;;;;;;;9.99;76.44;99987.43;2034740;85;21096;-75
2021/05/21 05:28:37;;;;;;;9.05;7.15;;;;;;;10.50;75.67;99982.75;2058607;85;22014;-77
2021/05/21 05:31:46;;;;;;;8.88;7.80;;;;;;;11.04;75.15;99984.25;2039212;85;21101;-77
2021/05/21 05:34:47;;;;;;;8.75;7.10;;;;;;;11.58;74.47;99982.94;2057291;85;21107;-76
2021/05/21 05:37:49;;;;;;;9.95;7.35;;;;;;;11.70;73.49;99976.70;2037087;85;21082;-77
2021/05/21 05:40:50;;;;;;;13.10;8.28;;;;;;;11.76;72.79;99973.33;2058385;85;21077;-75
2021/05/21 05:43:51;;;;;;;9.98;7.17;;;;;;;12.38;73.30;99966.17;2040553;85;21616;-75
2021/05/21 05:46:53;;;;;;;8.73;6.37;;;;;;;13.16;72.66;99958.09;2037912;85;21964;-76
2021/05/21 05:49:54;;;;;;;7.45;6.20;;;;;;;13.72;71.56;99954.30;2022414;85;21223;-77
2021/05/21 05:52:57;;;;;;;9.93;6.65;;;;;;;14.28;70.76;99943.67;2015261;85;21746;-77
2021/05/21 05:56:01;;;;;;;6.00;5.05;;;;;;;14.88;68.41;99936.02;2057351;85;21643;-75
2021/05/21 05:59:02;;;;;;;6.45;5.75;;;;;;;15.15;68.16;99927.59;2041659;85;21222;-75
2021/05/21 06:02:03;;;;;;;6.83;5.90;;;;;;;15.60;68.16;99930.56;1991793;87;21110;-75
2021/05/21 06:05:07;;;;;;;6.03;5.25;;;;;;;16.16;66.94;99931.20;2015101;86;21191;-75
2021/05/21 06:08:08;;;;;;;9.05;5.20;;;;;;;16.68;66.03;99933.47;2017825;86;21131;-75
2021/05/21 06:11:10;;;;;;;6.40;4.97;;;;;;;17.29;66.27;99929.01;2036480;85;21116;-76
2021/05/21 06:14:11;;;;;;;5.87;4.97;;;;;;;17.62;63.44;99923.92;2037763;85;21642;-74
2021/05/21 06:17:17;;;;;;;5.05;4.55;;;;;;;17.70;62.00;99916.43;2040817;85;21723;-78
2021/05/21 06:20:19;;;;;;;7.50;3.92;;;;;;;17.51;59.91;99912.55;2039023;85;21774;-76
2021/05/21 06:23:20;;;;;;;4.33;3.47;;;;;;;17.27;60.97;99905.60;2045260;85;21155;-81
2021/05/21 06:29:26;;;;;;;5.50;3.42;;;;;;;18.04;60.47;99897.40;2064382;84;21075;-74
2021/05/21 06:32:30;;;;;;;5.90;4.17;;;;;;;18.56;60.11;99883.94;2066733;84;21148;-75
2021/05/21 06:35:34;;;;;;;6.00;3.10;;;;;;;18.85;56.98;99886.11;2062626;84;21077;-75
2021/05/21 06:38:37;;;;;;;4.40;3.83;;;;;;;18.80;57.30;99880.06;2063621;84;21435;-75
2021/05/21 06:41:38;;;;;;;8.10;3.70;;;;;;;18.45;55.36;99878.50;2065848;84;21114;-76
2021/05/21 06:44:39;;;;;;;5.03;3.60;;;;;;;17.83;55.91;99874.48;2064170;84;21106;-76
2021/05/21 06:47:41;;;;;;;4.83;3.47;;;;;;;17.77;56.70;99878.02;2064951;84;21684;-74
2021/05/21 06:50:43;;;;;;;3.70;3.30;;;;;;;17.72;56.09;99876.50;2063209;84;21090;-76
2021/05/21 06:53:44;;;;;;;5.45;3.70;;;;;;;17.77;56.80;99872.13;2064461;84;21131;-74
2021/05/21 06:56:45;;;;;;;3.80;3.08;;;;;;;17.78;55.55;99872.94;2066962;84;21081;-75
2021/05/21 06:59:47;;;;;;;6.35;3.92;;;;;;;17.55;56.08;99878.91;2064923;84;21170;-75
2021/05/21 07:02:49;;;;;;;4.20;3.45;;;;;;;17.63;55.57;99872.75;2065525;84;21059;-77
2021/05/21 07:05:50;;;;;;;3.10;2.80;;;;;;;17.46;54.88;99879.17;2064912;84;21135;-76
2021/05/21 07:08:54;;;;;;;3.17;2.65;;;;;;;17.56;54.89;99872.49;2064609;84;21105;-78
2021/05/21 07:11:55;;;;;;;3.87;2.75;;;;;;;17.56;55.63;99870.63;2062903;84;21069;-75
2021/05/21 07:14:57;;;;;;;3.80;2.55;;;;;;;17.76;55.60;99868.30;2063845;84;21134;-78
2021/05/21 07:17:58;;;;;;;4.75;2.80;;;;;;;18.06;54.93;99851.84;2064311;84;21077;-76
2021/05/21 07:21:02;;;;;;;3.55;2.72;;;;;;;18.31;54.48;99846.94;2063147;84;21099;-77
2021/05/21 07:24:04;;;;;;;4.37;2.75;;;;;;;18.72;51.13;99839.50;2047958;84;22483;-75
2021/05/21 07:27:06;;;;;;;5.60;2.40;;;;;;;18.76;52.61;99834.54;2036649;85;21104;-77
2021/05/21 07:30:07;;;;;;;4.15;2.40;;;;;;;18.94;53.01;99835.01;2039146;85;21662;-74
2021/05/21 07:33:09;;;;;;;3.50;2.58;;;;;;;19.27;52.17;99831.84;2039131;85;21107;-74
2021/05/21 07:36:12;;;;;;;3.15;2.65;;;;;;;19.43;51.40;99818.25;2039550;85;21088;-75
2021/05/21 07:39:16;;;;;;;3.95;1.87;;;;;;;19.61;52.09;99826.73;2040270;85;21417;-75
2021/05/21 07:42:18;;;;;;;9.05;2.27;;;;;;;20.06;50.71;99824.30;2040175;85;21100;-75
2021/05/21 07:45:19;;;;;;;3.33;2.30;;;;;;;20.42;48.63;99827.75;2039124;85;21096;-75
2021/05/21 07:48:24;;;;;;;3.92;1.80;;;;;;;20.18;48.80;99824.28;2038762;85;22432;-75
2021/05/21 07:51:25;;;;;;;2.15;1.77;;;;;;;20.46;49.12;99822.16;2040053;85;21152;-74
2021/05/21 07:54:26;;;;;;;3.27;2.08;;;;;;;20.85;48.20;99817.02;2035856;85;21096;-75
2021/05/21 07:57:28;;;;;;;1.70;1.60;;;;;;;21.15;48.32;99818.64;2037040;85;21129;-76
2021/05/21 08:00:32;;;;;;;4.58;2.00;;;;;;;21.45;47.42;99820.50;2036209;85;21091;-75
2021/05/21 08:03:32;;;;;;;3.58;2.05;;;;;;;21.64;47.69;99808.11;2037733;85;21058;-76
2021/05/21 08:06:34;;;;;;;2.67;2.33;;;;;;;21.90;46.50;99800.66;2037677;85;21710;-76
2021/05/21 08:09:39;;;;;;;5.80;2.35;;;;;;;22.02;43.99;99787.57;2037081;85;21119;-75
2021/05/21 08:12:40;;;;;;;1.90;1.75;;;;;;;21.37;42.50;99783.16;2037175;85;21665;-74
2021/05/21 08:15:41;;;;;;;2.08;1.90;;;;;;;21.15;43.30;99784.92;2040467;85;21203;-77
2021/05/21 08:18:43;;;;;;;2.40;1.72;;;;;;;20.90;44.74;99783.95;2038563;85;21120;-78
2021/05/21 08:21:46;;;;;;;2.85;1.70;;;;;;;21.07;44.33;99782.62;2038333;85;21104;-75
2021/05/21 08:24:47;;;;;;;2.30;1.80;;;;;;;21.22;45.21;99788.26;2065247;84;22378;-74
2021/05/21 08:27:49;;;;;;;3.62;1.87;;;;;;;21.56;45.28;99786.93;2075319;84;21058;-74
2021/05/21 08:30:52;;;;;;;2.00;1.70;;;;;;;22.04;45.57;99778.69;2073996;84;21111;-76
2021/05/21 08:33:53;;;;;;;2.45;1.90;;;;;;;22.11;44.31;99770.69;2075299;84;21157;-74
2021/05/21 08:36:54;;;;;;;4.87;1.50;;;;;;;22.06;44.07;99763.87;2077612;84;20998;-75
2021/05/21 08:39:55;;;;;;;1.52;1.40;;;;;;;22.02;43.54;99752.45;2076519;84;21102;-78
2021/05/21 08:42:59;;;;;;;3.40;1.40;;;;;;;21.90;40.43;99756.09;2074590;84;21105;-75
2021/05/21 08:46:00;;;;;;;2.83;1.20;;;;;;;21.69;41.73;99741.51;2075898;84;21116;-75
2021/05/21 08:49:03;;;;;;;1.87;1.25;;;;;;;21.34;41.89;99743.65;2074812;84;21716;-77
2021/05/21 08:52:05;;;;;;;2.05;1.20;;;;;;;21.42;40.93;99723.03;2076859;84;21126;-74
2021/05/21 08:55:07;;;;;;;3.47;1.30;;;;;;;21.54;41.65;99726.46;2074367;84;21106;-75
2021/05/21 08:58:13;;;;;;;2.92;1.10;;;;;;;21.65;42.05;99728.74;2076337;84;21046;-75
2021/05/21 09:01:15;;;;;;;1.20;1.10;;;;;;;21.88;41.79;99720.44;2073534;84;21126;-74
2021/05/21 09:04:16;;;;;;;1.77;1.10;;;;;;;22.15;41.47;99711.02;2074670;84;21111;-74
2021/05/21 09:07:32;;;;;;;1.80;1.15;;;;;;;22.31;40.41;99712.59;2074219;84;21122;-74
2021/05/21 09:10:35;;;;;;;4.25;1.40;;;;;;;22.12;40.82;99707.47;2074069;84;21137;-77
2021/05/21 09:13:37;;;;;;;2.08;1.10;;;;;;;21.99;39.74;99715.14;2077303;84;21759;-75
2021/05/21 09:16:43;;;;;;;1.90;1.30;;;;;;;21.84;39.98;99704.97;2050555;84;21447;-74
2021/05/21 09:19:46;;;;;;;2.80;1.30;;;;;;;21.97;40.75;99694.34;2076704;84;21090;-75
2021/05/21 09:23:11;;;;;;;1.62;1.22;;;;;;;22.19;41.57;99694.33;2074084;84;21101;-75
2021/05/21 09:26:12;;;;;;;1.25;1.15;;;;;;;22.38;40.72;99685.66;2075937;84;21027;-76
2021/05/21 09:29:17;;;;;;;1.15;1.00;;;;;;;22.25;39.19;99683.88;2073687;84;21149;-75
2021/05/21 09:32:36;;;;;;;2.33;1.10;;;;;;;22.10;39.45;99683.97;2073670;84;21102;-75
2021/05/21 09:35:41;;;;;;;1.55;1.35;;;;;;;22.06;39.66;99683.36;2077881;84;21097;-75
2021/05/21 09:38:53;;;;;;;1.10;1.00;;;;;;;22.10;39.16;99678.56;2070962;84;21069;-74
2021/05/21 09:41:57;;;;;;;4.05;1.20;;;;;;;22.09;38.74;99671.52;2074752;84;21141;-75
2021/05/21 09:45:30;;;;;;;1.90;1.10;;;;;;;22.17;38.25;99662.14;2074976;84;22809;-75
2021/05/21 09:48:31;;;;;;;2.85;1.10;;;;;;;22.01;38.63;99661.16;2075728;84;21097;-83
2021/05/21 09:51:32;;;;;;;2.50;0.98;;;;;;;21.89;38.91;99649.14;2074444;84;21039;-76
2021/05/21 09:54:56;;;;;;;3.00;0.80;;;;;;;21.89;37.27;99642.39;2076659;84;21162;-75
2021/05/21 09:57:58;;;;;;;1.95;1.10;;;;;;;21.87;37.29;99633.71;2073308;84;21066;-77
2021/05/21 10:01:19;;;;;;;1.45;0.90;;;;;;;21.88;38.25;99630.50;2075440;84;21600;-75
2021/05/21 10:04:20;;;;;;;1.57;1.12;;;;;;;22.01;38.34;99630.09;2075937;84;21114;-76
2021/05/21 10:07:23;;;;;;;1.87;1.10;;;;;;;22.29;37.95;99624.19;2074284;84;21118;-76
2021/05/21 10:10:25;;;;;;;1.02;0.72;;;;;;;22.27;37.09;99612.30;2075501;84;21066;-76
2021/05/21 10:13:27;;;;;;;2.55;0.95;;;;;;;22.29;37.14;99606.08;2074373;84;21074;-75
2021/05/21 10:16:29;;;;;;;2.10;0.78;;;;;;;22.51;37.77;99613.31;2073972;84;21141;-75
2021/05/21 10:19:33;;;;;;;1.87;0.82;;;;;;;22.45;36.42;99601.64;2073018;84;21034;-76
2021/05/21 10:22:40;;;;;;;1.20;1.10;;;;;;;21.77;34.71;99587.71;2074615;84;21110;-76
2021/05/21 10:25:41;;;;;;;3.10;0.85;;;;;;;21.64;37.33;99600.24;2074075;84;21068;-75
2021/05/21 10:28:50;;;;;;;8.60;1.40;;;;;;;21.93;38.29;99604.37;2077166;84;22381;-73
2021/05/21 10:31:53;;;;;;;3.65;1.02;;;;;;;22.28;36.53;99603.11;2073420;84;21118;-76
2021/05/21 10:34:54;;;;;;;13.98;2.12;;;;;;;22.07;36.11;99591.25;2073627;84;21119;-76
2021/05/21 10:38:25;;;;;;;4.53;1.00;;;;;;;22.18;35.28;99575.17;2075382;84;21130;-75
2021/05/21 10:42:03;;;;;;;1.65;1.02;;;;;;;22.12;35.04;99566.98;2072251;84;21415;-75
2021/05/21 10:45:13;;;;;;;1.45;0.68;;;;;;;22.12;35.67;99574.28;2066756;84;21098;-76
2021/05/21 10:48:20;;;;;;;1.92;0.85;;;;;;;22.13;35.57;99581.30;2075726;84;21672;-75
2021/05/21 10:51:24;;;;;;;1.15;0.70;;;;;;;22.16;35.28;99560.02;2073875;84;21743;-77
2021/05/21 10:54:36;;;;;;;2.00;0.80;;;;;;;22.25;35.22;99572.55;2074538;84;21113;-77
2021/05/21 10:57:38;;;;;;;5.30;0.80;;;;;;;21.93;34.49;99550.86;2073606;84;21141;-75
2021/05/21 11:00:40;;;;;;;6.65;1.10;;;;;;;21.96;34.58;99546.30;2075881;84;21581;-77
2021/05/21 11:04:05;;;;;;;2.08;1.00;;;;;;;21.89;35.44;99558.67;2050563;84;21114;-76
2021/05/21 11:07:04;;;;;;;4.83;0.98;;;;;;;21.88;35.37;99555.70;2073562;84;21118;-76
2021/05/21 11:10:30;;;;;;;1.05;0.65;;;;;;;22.02;36.10;99553.91;2073098;84;21102;-75
2021/05/21 11:13:31;;;;;;;2.87;0.70;;;;;;;21.98;35.47;99559.02;2073527;84;21126;-75
2021/05/21 11:16:33;;;;;;;3.15;0.90;;;;;;;21.71;35.49;99555.79;2072208;84;21573;-76
2021/05/21 11:19:39;;;;;;;3.33;1.05;;;;;;;21.30;35.10;99552.30;2075159;84;21145;-76
2021/05/21 11:22:42;;;;;;;1.12;0.70;;;;;;;21.20;36.34;99552.97;2075156;84;21051;-76
2021/05/21 11:26:17;;;;;;;22.77;3.58;;;;;;;21.13;37.34;99547.77;2062819;84;21156;-76
2021/05/21 11:29:18;;;;;;;16.00;1.70;;;;;;;21.24;36.62;99540.63;2039131;85;21730;-76
2021/05/21 11:32:23;;;;;;;2.17;1.10;;;;;;;21.31;35.82;99519.66;2057766;85;21135;-75
2021/05/21 11:35:24;;;;;;;1.70;0.70;;;;;;;21.26;37.19;99529.88;2042601;85;21193;-75
2021/05/21 11:38:26;;;;;;;3.62;0.90;;;;;;;21.14;36.68;99521.61;2057150;85;21085;-76
2021/05/21 11:41:34;;;;;;;3.17;1.05;;;;;;;21.21;36.63;99510.11;2059462;85;21089;-75
2021/05/21 11:44:36;;;;;;;3.47;1.15;;;;;;;21.35;36.39;99508.66;2039940;85;21124;-76
2021/05/21 11:47:37;;;;;;;0.80;0.80;;;;;;;21.34;36.68;99508.89;2057237;85;21135;-75
2021/05/21 11:50:38;;;;;;;1.65;0.90;;;;;;;21.42;36.96;99498.50;2041920;85;21126;-76
2021/05/21 11:53:57;;;;;;;2.33;0.60;;;;;;;21.55;36.28;99487.05;2058712;85;21111;-75
2021/05/21 11:57:02;;;;;;;1.25;0.90;;;;;;;21.50;36.12;99483.75;2041282;85;22298;-76
2021/05/21 12:00:07;;;;;;;3.80;0.80;;;;;;;21.60;37.36;99487.11;2055211;85;21120;-75
2021/05/21 12:03:10;;;;;;;1.57;0.93;;;;;;;21.70;36.24;99485.30;2039942;85;21124;-76
2021/05/21 12:06:11;;;;;;;4.35;1.17;;;;;;;21.77;36.97;99472.16;2060252;85;21096;-76
2021/05/21 12:09:15;;;;;;;1.32;1.00;;;;;;;21.69;35.39;99466.13;2042638;85;21130;-76
2021/05/21 12:12:16;;;;;;;0.72;0.70;;;;;;;21.38;35.38;99462.31;2057982;85;21144;-76
2021/05/21 12:15:19;;;;;;;1.47;0.80;;;;;;;21.02;36.08;99454.31;2040087;85;22642;-74
2021/05/21 12:18:21;;;;;;;1.05;0.72;;;;;;;21.02;36.40;99447.56;2056768;84;21063;-75
2021/05/21 12:21:34;;;;;;;1.37;0.70;;;;;;;21.31;36.29;99442.77;2040188;85;21157;-76
2021/05/21 12:24:41;;;;;;;4.33;1.20;;;;;;;21.52;36.75;99441.67;2056944;85;21445;-76
2021/05/21 12:27:42;;;;;;;1.35;0.60;;;;;;;21.70;36.12;99436.70;2043293;85;21169;-76
2021/05/21 12:30:44;;;;;;;1.52;0.80;;;;;;;21.85;35.56;99436.55;2057107;85;21546;-75
2021/05/21 12:33:48;;;;;;;1.92;1.07;;;;;;;21.97;35.83;99436.41;2043216;85;21112;-74
2021/05/21 12:37:05;;;;;;;0.70;0.70;;;;;;;22.10;35.87;99441.34;2058581;85;21103;-78
2021/05/21 12:40:08;;;;;;;2.87;0.75;;;;;;;21.97;32.89;99439.91;2035760;85;21120;-76
2021/05/21 12:43:09;;;;;;;1.12;1.02;;;;;;;21.78;34.27;99443.53;2057598;85;21169;-76
2021/05/21 12:46:14;;;;;;;0.98;0.80;;;;;;;21.60;33.68;99441.22;2042680;85;21476;-76
2021/05/21 12:49:26;;;;;;;2.25;0.60;;;;;;;21.55;34.51;99450.61;2057959;85;21189;-75
2021/05/21 12:52:27;;;;;;;3.92;0.88;;;;;;;21.63;34.17;99446.09;2040122;85;21118;-76
2021/05/21 12:55:29;;;;;;;0.65;0.55;;;;;;;21.63;34.15;99444.75;2057930;85;21762;-75
2021/05/21 12:58:43;;;;;;;0.90;0.60;;;;;;;21.63;34.75;99442.86;2073615;84;21116;-74
2021/05/21 13:01:44;;;;;;;0.70;0.60;;;;;;;21.68;35.12;99444.27;2039372;85;21095;-75
2021/05/21 13:05:13;;;;;;;0.75;0.75;;;;;;;21.64;34.79;99440.43;2060403;85;21454;-75
2021/05/21 13:08:14;;;;;;;3.60;1.62;;;;;;;21.64;34.19;99446.37;2040882;85;21116;-75
2021/05/21 13:11:19;;;;;;;4.15;0.80;;;;;;;21.55;33.96;99448.72;2059156;85;21083;-75
2021/05/21 13:14:24;;;;;;;1.98;0.70;;;;;;;21.48;34.10;99442.70;2040756;85;21116;-75
2021/05/21 13:17:31;;;;;;;5.70;1.00;;;;;;;21.33;34.08;99435.23;2041042;85;21157;-75
2021/05/21 13:20:36;;;;;;;2.00;0.70;;;;;;;21.33;34.52;99438.47;2057320;85;21175;-75
2021/05/21 13:23:39;;;;;;;4.60;0.75;;;;;;;21.33;34.53;99439.28;2038229;85;21158;-75
2021/05/21 13:26:55;;;;;;;1.45;0.70;;;;;;;21.41;34.48;99442.09;2058026;85;21149;-76
2021/05/21 13:29:57;;;;;;;0.70;0.70;;;;;;;21.32;34.03;99446.30;2041812;85;21200;-76
2021/05/21 13:33:00;;;;;;;0.80;0.80;;;;;;;21.24;34.25;99448.91;2019071;86;21210;-76
2021/05/21 13:36:02;;;;;;;0.80;0.70;;;;;;;21.14;34.66;99456.88;2070591;84;21643;-76
2021/05/21 13:39:06;;;;;;;2.70;0.80;;;;;;;21.10;34.67;99443.63;2041553;85;22926;-76
2021/05/21 13:42:08;;;;;;;4.55;0.72;;;;;;;21.00;34.70;99426.23;2059428;85;22751;-75
2021/05/21 13:45:11;;;;;;;0.85;0.80;;;;;;;21.01;35.06;99419.79;2040230;85;21104;-75
2021/05/21 13:48:13;;;;;;;0.98;0.78;;;;;;;20.98;34.95;99416.79;2058962;85;21101;-76
2021/05/21 13:51:14;;;;;;;1.10;1.00;;;;;;;20.96;35.06;99414.33;2039299;85;21070;-76
2021/05/21 13:54:16;;;;;;;6.55;1.15;;;;;;;21.04;35.73;99413.08;2058717;85;21110;-76
2021/05/21 13:57:18;;;;;;;1.80;0.70;;;;;;;21.13;35.41;99406.70;2043606;85;21715;-75
2021/05/21 14:00:20;;;;;;;3.12;1.00;;;;;;;21.15;35.21;99402.69;2057565;85;21061;-75
2021/05/21 14:03:22;;;;;;;2.35;1.02;;;;;;;21.08;34.53;99407.98;2004920;87;21133;-75
2021/05/21 14:06:23;;;;;;;1.95;1.45;;;;;;;20.85;34.13;99409.88;2059689;85;21088;-76
2021/05/21 14:09:24;;;;;;;1.32;0.82;;;;;;;20.68;34.74;99410.48;2042533;85;21094;-76
2021/05/21 14:12:26;;;;;;;1.60;0.80;;;;;;;20.57;35.24;99404.95;2058919;85;21050;-75
2021/05/21 14:15:27;;;;;;;6.40;0.98;;;;;;;20.48;34.97;99406.42;2037701;85;21035;-75
2021/05/21 14:18:28;;;;;;;3.80;0.70;;;;;;;20.33;34.71;99398.14;2057675;85;21666;-75
2021/05/21 14:21:29;;;;;;;0.70;0.70;;;;;;;20.24;35.30;99384.25;2043360;85;21667;-74
2021/05/21 14:24:31;;;;;;;3.62;0.80;;;;;;;20.20;35.37;99372.90;2057068;85;21167;-75
2021/05/21 14:27:32;;;;;;;2.42;1.00;;;;;;;20.24;35.87;99368.63;2008415;87;21589;-76